YXMK weather

Macksville Park Helicopter Landing Site
Macksville, New South Wales, Australia

Public forecast

Using degrees Celsius for public forecast. Weather courtesy of forecast.io.

Closest aviation weather report (METAR) to Macksville Park Helicopter Landing Site

Report is more than 2 hours old.

Closest report is Port Macquarie Airport, 43.7 nm (80.9 km) S. Retrieved 2019/10/21 17:14 UTC (2 hours ago):

YPMQ 211714Z AUTO 00000KT 7000 // NCD 07/06 Q1024

Closest aviation forecast (TAF) to Macksville Park Helicopter Landing Site

Closest forecast is Taree Airport, 73.8 nm (136.6 km) SSW. Retrieved 2019/10/21 19:00 UTC (17 minutes ago):

TAF YTRE 211741Z 2119/2208 30004KT CAVOK FM220000 10010KT CAVOK PROB30 2119/2121 5000 FU